createdAt,value
2019-05-14T00:00:32.073Z,101081.27
2019-05-14T00:03:02.123Z,101077.52
2019-05-14T00:05:32.001Z,101073.55
2019-05-14T00:07:59.518Z,101079.47
2019-05-14T00:10:27.353Z,101080.89
2019-05-14T00:13:11.991Z,101079.16
2019-05-14T00:15:41.429Z,101074.12
2019-05-14T00:18:11.634Z,101073.55
2019-05-14T00:20:39.070Z,101067.94
2019-05-14T00:23:06.884Z,101066.43
2019-05-14T00:25:34.642Z,101065.09
2019-05-14T00:28:02.476Z,101053.58
2019-05-14T00:30:31.736Z,101056.12
2019-05-14T00:33:01.225Z,101053.78
2019-05-14T00:35:32.503Z,101054.86
2019-05-14T00:38:01.351Z,101049.08
2019-05-14T00:40:31.341Z,101052.44
2019-05-14T00:42:59.096Z,101046.45
2019-05-14T00:45:26.909Z,101049.81
2019-05-14T00:47:54.729Z,101046.54
2019-05-14T00:50:22.510Z,101051.33
2019-05-14T00:52:51.644Z,101049.67
2019-05-14T00:55:22.292Z,101048.52
2019-05-14T00:57:52.158Z,101047.03
2019-05-14T01:00:22.034Z,101043.63
2019-05-14T01:02:51.788Z,101040.71
2019-05-14T01:05:21.562Z,101039.30
2019-05-14T01:07:51.434Z,101038.34
2019-05-14T01:10:19.477Z,101032.69
2019-05-14T01:13:06.943Z,101029.23
2019-05-14T01:15:34.711Z,101030.30
2019-05-14T01:18:02.520Z,101029.32
2019-05-14T01:20:31.938Z,101032.11
2019-05-14T01:23:02.042Z,101031.28
2019-05-14T01:25:31.723Z,101030.37
2019-05-14T01:28:01.891Z,101026.97
2019-05-14T01:30:29.174Z,101029.72
2019-05-14T01:33:02.280Z,101025.73
2019-05-14T01:35:31.559Z,101021.80
2019-05-14T01:37:59.698Z,101022.95
2019-05-14T01:40:27.461Z,101027.41
2019-05-14T01:42:55.238Z,101026.25
2019-05-14T01:45:27.888Z,101026.83
2019-05-14T01:47:52.721Z,101030.06
2019-05-14T01:50:21.597Z,101028.59
2019-05-14T01:52:51.863Z,101030.19
2019-05-14T01:55:19.253Z,101028.77
2019-05-14T01:57:47.032Z,101030.40
2019-05-14T02:00:15.014Z,101026.74
2019-05-14T02:02:42.776Z,101021.05
2019-05-14T02:05:12.427Z,101023.43
2019-05-14T02:07:41.988Z,101026.86
2019-05-14T02:10:11.645Z,101019.63
2019-05-14T02:12:42.360Z,101027.05
2019-05-14T02:15:12.030Z,101028.19
2019-05-14T02:17:41.475Z,101027.97
2019-05-14T02:20:12.370Z,101025.25
2019-05-14T02:22:41.737Z,101020.20
2019-05-14T02:25:11.666Z,101017.00
2019-05-14T02:27:41.426Z,101022.34
2019-05-14T02:30:09.626Z,101010.63
2019-05-14T02:32:40.395Z,101014.02
2019-05-14T02:35:09.832Z,101018.33
2019-05-14T02:37:40.081Z,101022.89
2019-05-14T02:40:09.629Z,101017.48
2019-05-14T02:42:39.703Z,101015.52
2019-05-14T02:45:08.942Z,101016.30
2019-05-14T02:47:39.660Z,101014.35
2019-05-14T02:50:09.684Z,101012.20
2019-05-14T02:52:36.136Z,101014.41
2019-05-14T02:55:04.513Z,101014.25
2019-05-14T02:57:32.319Z,101009.28
2019-05-14T03:00:00.097Z,101008.03
2019-05-14T03:02:29.695Z,101005.13
2019-05-14T03:04:59.191Z,101004.81
2019-05-14T03:07:29.815Z,101000.98
2019-05-14T03:09:59.405Z,100993.66
2019-05-14T03:12:29.998Z,100995.09
2019-05-14T03:14:58.846Z,100900.95
2019-05-14T03:17:26.206Z,100995.46
2019-05-14T03:19:53.996Z,100985.53
2019-05-14T03:22:41.647Z,100983.34
2019-05-14T03:24:59.635Z,100980.73
2019-05-14T03:27:30.099Z,100986.31
2019-05-14T03:29:58.479Z,100983.14
2019-05-14T03:32:25.875Z,100982.08
2019-05-14T03:34:54.445Z,100981.36
2019-05-14T03:37:24.035Z,100987.50
2019-05-14T03:39:52.038Z,100983.31
2019-05-14T03:42:19.955Z,100980.86
2019-05-14T03:44:49.092Z,100983.35
2019-05-14T03:47:19.664Z,100971.15
2019-05-14T03:49:49.565Z,100974.59
2019-05-14T03:52:19.608Z,100973.74
2019-05-14T03:54:49.441Z,100971.83
2019-05-14T03:57:15.985Z,100972.07
2019-05-14T03:59:43.845Z,100972.20
2019-05-14T04:02:12.123Z,100972.80
2019-05-14T04:04:39.922Z,100966.41
2019-05-14T04:07:10.250Z,100965.55
2019-05-14T04:09:40.217Z,100964.85
2019-05-14T04:12:10.022Z,100967.69
2019-05-14T04:14:44.285Z,100966.45
2019-05-14T04:17:17.316Z,100956.15
2019-05-14T04:19:49.266Z,100964.91
2019-05-14T04:22:19.031Z,100969.42
2019-05-14T04:24:49.579Z,100970.71
2019-05-14T04:27:20.337Z,100972.33
2019-05-14T04:29:52.455Z,100974.88
2019-05-14T04:32:20.518Z,100983.40
2019-05-14T04:34:49.868Z,100981.02
2019-05-14T04:37:20.097Z,100980.36
2019-05-14T04:39:50.308Z,100978.95
2019-05-14T04:42:22.578Z,100980.26
2019-05-14T04:44:50.908Z,100978.58
2019-05-14T04:47:30.395Z,100982.04
2019-05-14T04:49:50.515Z,100989.97
2019-05-14T04:52:20.487Z,100988.16
2019-05-14T04:54:49.964Z,100988.52
2019-05-14T04:57:20.361Z,100985.41
2019-05-14T04:59:49.352Z,100960.53
2019-05-14T05:02:19.843Z,100989.48
2019-05-14T05:04:50.745Z,100985.72
2019-05-14T05:07:19.190Z,100985.28
2019-05-14T05:09:49.871Z,100981.73
2019-05-14T05:12:19.429Z,100979.83
2019-05-14T05:14:49.078Z,100975.23
2019-05-14T05:17:15.916Z,100973.54
2019-05-14T05:19:45.734Z,100970.02
2019-05-14T05:22:13.487Z,100962.03
2019-05-14T05:24:41.243Z,100965.92
2019-05-14T05:27:09.462Z,100958.85
2019-05-14T05:29:39.250Z,100994.56
2019-05-14T05:32:08.703Z,100983.63
2019-05-14T05:34:38.907Z,100978.62
2019-05-14T05:37:08.624Z,100973.80
2019-05-14T05:39:38.506Z,100972.89
2019-05-14T05:42:05.953Z,100971.41
2019-05-14T05:44:33.783Z,100974.17
2019-05-14T05:47:01.534Z,100980.24
2019-05-14T05:49:29.402Z,100970.95
2019-05-14T05:51:59.143Z,100966.28
2019-05-14T05:54:29.022Z,100958.95
2019-05-14T05:56:58.172Z,100956.80
2019-05-14T05:59:29.004Z,100957.02
2019-05-14T06:01:58.425Z,100952.03
2019-05-14T06:04:25.884Z,100946.02
2019-05-14T06:06:55.572Z,100945.59
2019-05-14T06:09:23.407Z,100944.27
2019-05-14T06:11:51.237Z,100941.45
2019-05-14T06:14:19.134Z,100944.78
2019-05-14T06:16:48.947Z,100939.11
2019-05-14T06:19:18.526Z,100933.31
2019-05-14T06:21:48.738Z,100926.66
2019-05-14T06:24:16.018Z,100928.93
2019-05-14T06:26:43.839Z,100932.34
2019-05-14T06:29:11.686Z,100925.75
2019-05-14T06:31:39.516Z,100933.57
2019-05-14T06:34:09.521Z,100932.44
2019-05-14T06:36:39.568Z,100923.89
2019-05-14T06:39:09.136Z,100930.62
2019-05-14T06:41:42.414Z,100930.90
2019-05-14T06:44:09.224Z,100929.08
2019-05-14T06:46:38.976Z,100929.97
2019-05-14T06:49:09.042Z,100932.58
2019-05-14T06:51:39.312Z,100926.87
2019-05-14T06:54:06.344Z,100919.78
2019-05-14T06:56:34.150Z,100927.50
2019-05-14T06:59:01.992Z,100922.00
2019-05-14T07:01:29.792Z,100925.31
2019-05-14T07:03:58.100Z,100926.48
2019-05-14T07:06:28.808Z,100924.00
2019-05-14T07:08:55.686Z,100920.83
2019-05-14T07:11:23.472Z,100925.10
2019-05-14T07:13:51.297Z,100922.00
2019-05-14T07:16:19.732Z,100916.58
2019-05-14T07:18:52.852Z,100916.52
2019-05-14T07:21:18.664Z,100914.98
2019-05-14T07:23:48.819Z,100910.97
2019-05-14T07:26:19.011Z,100912.90
2019-05-14T07:28:48.556Z,100914.70
2019-05-14T07:31:18.395Z,100913.39
2019-05-14T07:33:45.397Z,100909.56
2019-05-14T07:36:13.238Z,100900.93
2019-05-14T07:38:40.993Z,100899.69
2019-05-14T07:41:09.432Z,100898.55
2019-05-14T07:43:39.384Z,100899.88
2019-05-14T07:46:08.476Z,100894.25
2019-05-14T07:48:38.971Z,100895.34
2019-05-14T07:51:08.781Z,100881.75
2019-05-14T07:53:39.752Z,100877.27
2019-05-14T07:56:05.691Z,100875.88
2019-05-14T07:58:33.524Z,100859.25
2019-05-14T08:01:01.339Z,100870.17
2019-05-14T08:03:29.121Z,100866.72
2019-05-14T08:05:58.861Z,100870.03
2019-05-14T08:08:29.048Z,100872.79
2019-05-14T08:10:58.975Z,100864.54
2019-05-14T08:13:28.222Z,100864.44
2019-05-14T08:15:58.168Z,100856.89
2019-05-14T08:18:25.638Z,100844.69
2019-05-14T08:20:53.487Z,100856.39
2019-05-14T08:23:21.250Z,100853.11
2019-05-14T08:25:49.022Z,100849.32
2019-05-14T08:28:18.462Z,100846.16
2019-05-14T08:30:48.902Z,100832.12
2019-05-14T08:33:18.282Z,100847.55
2019-05-14T08:35:45.951Z,100839.64
2019-05-14T08:38:14.016Z,100832.63
2019-05-14T08:40:41.925Z,100833.95
2019-05-14T08:43:09.703Z,100827.25
2019-05-14T08:45:38.935Z,100822.34
2019-05-14T08:48:09.127Z,100821.69
2019-05-14T08:50:38.723Z,100819.01
2019-05-14T08:53:08.998Z,100829.45
2019-05-14T08:55:38.209Z,100823.80
2019-05-14T08:58:11.105Z,100816.92
2019-05-14T09:00:36.192Z,100759.17
2019-05-14T09:03:04.767Z,100786.13
2019-05-14T09:05:32.503Z,100768.94
2019-05-14T09:08:00.238Z,100819.02
2019-05-14T09:10:28.554Z,100823.80
2019-05-14T09:12:58.330Z,100800.11
2019-05-14T09:15:28.671Z,100789.80
2019-05-14T09:17:56.010Z,100786.59
2019-05-14T09:20:23.782Z,100801.73
2019-05-14T09:22:51.661Z,100777.48
2019-05-14T09:25:19.731Z,100789.10
2019-05-14T09:27:49.332Z,100753.06
2019-05-14T09:30:18.664Z,100758.80
2019-05-14T09:32:49.262Z,100772.61
2019-05-14T09:35:18.780Z,100758.95
2019-05-14T09:37:51.021Z,100796.78
2019-05-14T09:40:16.024Z,100762.52
2019-05-14T09:42:43.875Z,100748.70
2019-05-14T09:45:11.822Z,100766.15
2019-05-14T09:47:39.623Z,100781.27
2019-05-14T09:50:16.389Z,100771.91
2019-05-14T09:52:39.084Z,100767.59
2019-05-14T09:55:09.337Z,100802.65
2019-05-14T09:57:38.782Z,100783.38
2019-05-14T10:00:14.422Z,100774.16
2019-05-14T10:02:48.847Z,100756.28
2019-05-14T10:05:15.691Z,100742.83
2019-05-14T10:07:43.581Z,100750.10
2019-05-14T10:10:11.443Z,100724.97
2019-05-14T10:12:51.608Z,100770.09
2019-05-14T10:15:10.200Z,100766.39
2019-05-14T10:17:39.181Z,100746.27
2019-05-14T10:20:08.849Z,100747.90
2019-05-14T10:22:39.532Z,100732.79
2019-05-14T10:25:09.047Z,100731.84
2019-05-14T10:27:37.179Z,100701.38
2019-05-14T10:30:09.930Z,100715.84
2019-05-14T10:32:41.370Z,100736.75
2019-05-14T10:35:08.517Z,100730.82
2019-05-14T10:37:39.824Z,100721.96
2019-05-14T10:40:06.299Z,100732.33
2019-05-14T10:43:04.838Z,100737.94
2019-05-14T10:45:32.613Z,100737.10
2019-05-14T10:48:00.395Z,100725.75
2019-05-14T10:50:28.939Z,100727.34
2019-05-14T10:52:59.610Z,100726.45
2019-05-14T10:55:27.992Z,100724.09
2019-05-14T10:57:58.295Z,100714.94
2019-05-14T11:00:28.250Z,100715.81
2019-05-14T11:02:55.860Z,100696.08
2019-05-14T11:05:23.627Z,100692.27
2019-05-14T11:07:51.461Z,100702.61
2019-05-14T11:10:19.652Z,100710.34
2019-05-14T11:12:50.630Z,100719.72
2019-05-14T11:15:19.081Z,100701.94
2019-05-14T11:17:48.713Z,100693.98
2019-05-14T11:20:19.155Z,100696.00
2019-05-14T11:23:29.831Z,100687.52
2019-05-14T11:25:58.151Z,100682.96
2019-05-14T11:28:28.527Z,100664.32
2019-05-14T11:30:55.998Z,100671.66
2019-05-14T11:33:23.949Z,100671.45
2019-05-14T11:35:51.742Z,100698.51
2019-05-14T11:38:31.756Z,100683.92
2019-05-14T11:40:49.689Z,100677.53
2019-05-14T11:43:17.739Z,100666.17
2019-05-14T11:45:48.263Z,100665.75
2019-05-14T11:48:15.300Z,100668.32
2019-05-14T11:50:43.490Z,100659.70
2019-05-14T11:53:11.313Z,100663.53
2019-05-14T11:55:39.141Z,100661.48
2019-05-14T11:58:08.732Z,100670.97
2019-05-14T12:00:38.717Z,100680.23
2019-05-14T12:03:09.062Z,100664.74
2019-05-14T12:05:38.699Z,100657.67
2019-05-14T12:08:05.972Z,100644.83
2019-05-14T12:10:33.733Z,100623.59
2019-05-14T12:13:01.587Z,100617.42
2019-05-14T12:15:29.361Z,100644.30
2019-05-14T12:17:59.597Z,100647.51
2019-05-14T12:20:29.452Z,100655.84
2019-05-14T12:22:59.112Z,100649.01
2019-05-14T12:25:29.207Z,100639.34
2019-05-14T12:27:58.752Z,100624.58
2019-05-14T12:30:28.454Z,100628.67
2019-05-14T12:32:55.505Z,100598.76
2019-05-14T12:35:23.258Z,100608.66
2019-05-14T12:37:51.080Z,100603.30
2019-05-14T12:40:19.535Z,100616.14
2019-05-14T12:42:49.673Z,100627.05
2019-05-14T12:45:19.007Z,100629.27
2019-05-14T12:47:49.805Z,100633.92
2019-05-14T12:50:16.954Z,100629.02
2019-05-14T12:52:45.008Z,100632.25
2019-05-14T12:55:12.884Z,100628.85
2019-05-14T12:57:41.177Z,100610.17
2019-05-14T13:00:10.091Z,100605.70
2019-05-14T13:02:38.522Z,100588.39
2019-05-14T13:05:09.041Z,100584.34
2019-05-14T13:07:41.779Z,100586.26
2019-05-14T13:10:10.183Z,100594.48
2019-05-14T13:12:39.298Z,100594.80
2019-05-14T13:15:08.840Z,100609.06
2019-05-14T13:17:38.869Z,100620.41
2019-05-14T13:20:13.839Z,100605.75
2019-05-14T13:22:45.570Z,100590.78
2019-05-14T13:25:10.621Z,100580.88
2019-05-14T13:27:39.486Z,100573.35
2019-05-14T13:30:09.295Z,100565.31
2019-05-14T13:32:42.491Z,100558.95
2019-05-14T13:35:13.610Z,100578.28
2019-05-14T13:37:40.195Z,100560.41
2019-05-14T13:40:09.216Z,100559.63
2019-05-14T13:42:39.875Z,100552.06
2019-05-14T13:45:10.212Z,100558.58
2019-05-14T13:47:38.858Z,100568.02
2019-05-14T13:50:08.526Z,100580.45
2019-05-14T13:52:40.446Z,100565.03
2019-05-14T13:55:09.315Z,100558.72
2019-05-14T13:57:39.468Z,100540.81
2019-05-14T14:00:11.926Z,100545.80
2019-05-14T14:02:37.073Z,100571.88
2019-05-14T14:05:08.552Z,100573.03
2019-05-14T14:07:39.120Z,100574.54
2019-05-14T14:10:09.143Z,100570.89
2019-05-14T14:12:39.903Z,100568.83
2019-05-14T14:15:09.558Z,100577.67
2019-05-14T14:17:39.041Z,100563.44
2019-05-14T14:20:08.519Z,100566.56
2019-05-14T14:22:39.490Z,100547.25
2019-05-14T14:25:08.613Z,100548.47
2019-05-14T14:27:35.977Z,100554.28
2019-05-14T14:30:05.923Z,100524.37
2019-05-14T14:32:33.933Z,100527.21
2019-05-14T14:35:01.967Z,100512.98
2019-05-14T14:37:29.968Z,100544.93
2019-05-14T14:39:59.278Z,100522.94
2019-05-14T14:42:42.877Z,100532.31
2019-05-14T14:45:10.895Z,100531.02
2019-05-14T14:47:39.533Z,100540.48
2019-05-14T14:50:09.340Z,100529.59
2019-05-14T14:52:37.173Z,100535.27
2019-05-14T14:55:05.570Z,100526.16
2019-05-14T14:57:33.366Z,100525.11
2019-05-14T15:00:01.186Z,100521.56
2019-05-14T15:02:29.170Z,100523.23
2019-05-14T15:04:59.583Z,100516.80
2019-05-14T15:07:29.771Z,100516.83
2019-05-14T15:09:59.462Z,100504.66
2019-05-14T15:12:28.862Z,100497.22
2019-05-14T15:14:59.114Z,100506.39
2019-05-14T15:17:25.786Z,100508.88
2019-05-14T15:19:53.618Z,100514.69
2019-05-14T15:22:21.421Z,100514.51
2019-05-14T15:24:49.211Z,100517.45
2019-05-14T15:27:18.886Z,100513.44
2019-05-14T15:29:48.859Z,100521.03
2019-05-14T15:32:19.607Z,100509.84
2019-05-14T15:34:50.273Z,100511.49
2019-05-14T15:37:16.233Z,100522.91
2019-05-14T15:39:44.031Z,100525.58
2019-05-14T15:42:13.727Z,100521.64
2019-05-14T15:44:48.934Z,100518.80
2019-05-14T15:47:11.813Z,100510.20
2019-05-14T15:49:40.017Z,100504.64
2019-05-14T15:52:08.408Z,100498.39
2019-05-14T15:54:46.298Z,100497.37
2019-05-14T15:57:06.154Z,100497.63
2019-05-14T15:59:33.955Z,100493.82
2019-05-14T16:02:01.719Z,100489.75
2019-05-14T16:04:29.541Z,100483.48
2019-05-14T16:06:58.642Z,100475.14
2019-05-14T16:09:28.940Z,100476.45
2019-05-14T16:11:56.389Z,100472.49
2019-05-14T16:14:24.216Z,100467.84
2019-05-14T16:16:52.058Z,100475.03
2019-05-14T16:19:19.950Z,100471.86
2019-05-14T16:22:03.030Z,100470.30
2019-05-14T16:24:31.073Z,100471.17
2019-05-14T16:27:00.098Z,100465.72
2019-05-14T16:29:38.242Z,100476.03
2019-05-14T16:31:58.702Z,100476.32
2019-05-14T16:34:28.566Z,100469.55
2019-05-14T16:36:58.341Z,100468.80
2019-05-14T16:39:28.459Z,100469.98
2019-05-14T16:41:58.358Z,100469.94
2019-05-14T16:44:28.329Z,100467.45
2019-05-14T16:46:58.718Z,100465.19
2019-05-14T16:49:29.376Z,100467.52
2019-05-14T16:52:01.476Z,100470.02
2019-05-14T16:54:29.956Z,100463.76
2019-05-14T16:57:01.032Z,100463.45
2019-05-14T16:59:29.751Z,100463.31
2019-05-14T17:01:58.510Z,100467.34
2019-05-14T17:04:26.506Z,100469.66
2019-05-14T17:06:54.300Z,100470.50
2019-05-14T17:09:22.225Z,100478.13
2019-05-14T17:11:55.076Z,100473.84
2019-05-14T17:14:23.256Z,100463.70
2019-05-14T17:16:51.565Z,100468.89
2019-05-14T17:19:19.512Z,100468.33
2019-05-14T17:21:48.756Z,100462.94
2019-05-14T17:24:19.775Z,100466.08
2019-05-14T17:26:48.838Z,100469.47
2019-05-14T17:29:19.132Z,100471.67
2019-05-14T17:31:52.725Z,100465.45
2019-05-14T17:34:20.891Z,100466.04
2019-05-14T17:36:49.151Z,100470.96
2019-05-14T17:39:18.760Z,100467.10
2019-05-14T17:41:48.458Z,100467.87
2019-05-14T17:44:16.706Z,100471.75
2019-05-14T17:46:44.800Z,100476.08
2019-05-14T17:49:12.663Z,100476.31
2019-05-14T17:51:40.849Z,100476.67
2019-05-14T17:54:09.217Z,100476.06
2019-05-14T17:56:39.026Z,100474.80
2019-05-14T17:59:08.630Z,100481.27
2019-05-14T18:01:39.062Z,100479.31
2019-05-14T18:04:08.905Z,100481.80
2019-05-14T18:06:36.137Z,100478.63
2019-05-14T18:09:04.949Z,100477.63
2019-05-14T18:11:33.849Z,100475.31
2019-05-14T18:14:01.711Z,100472.34
2019-05-14T18:16:29.555Z,100475.48
2019-05-14T18:18:58.260Z,100472.51
2019-05-14T18:21:28.475Z,100478.30
2019-05-14T18:23:58.423Z,100479.14
2019-05-14T18:26:25.861Z,100476.33
2019-05-14T18:28:53.696Z,100476.18
2019-05-14T18:31:21.493Z,100476.34
2019-05-14T18:33:49.528Z,100479.83
2019-05-14T18:36:20.185Z,100476.20
2019-05-14T18:38:49.396Z,100486.12
2019-05-14T18:41:18.911Z,100482.67
2019-05-14T18:43:47.000Z,100488.62
2019-05-14T18:46:14.899Z,100491.41
2019-05-14T18:48:42.643Z,100491.08
2019-05-14T18:51:10.500Z,100493.89
2019-05-14T18:53:38.650Z,100495.84
2019-05-14T18:56:19.656Z,100499.11
2019-05-14T18:58:38.183Z,100504.52
2019-05-14T19:01:06.157Z,100504.16
2019-05-14T19:03:39.898Z,100505.94
2019-05-14T19:06:07.920Z,100505.41
2019-05-14T19:08:35.792Z,100509.48
2019-05-14T19:11:03.689Z,100504.78
2019-05-14T19:13:31.764Z,100508.89
2019-05-14T19:15:59.628Z,100507.17
2019-05-14T19:18:28.598Z,100508.95
2019-05-14T19:20:59.000Z,100511.39
2019-05-14T19:23:28.717Z,100508.72
2019-05-14T19:25:56.253Z,100517.59
2019-05-14T19:28:24.129Z,100522.01
2019-05-14T19:30:51.990Z,100516.88
2019-05-14T19:33:20.581Z,100517.35
2019-05-14T19:35:48.771Z,100521.27
2019-05-14T19:38:17.933Z,100520.88
2019-05-14T19:40:48.256Z,100517.39
2019-05-14T19:43:21.233Z,100517.48
2019-05-14T19:45:49.052Z,100519.58
2019-05-14T19:48:18.965Z,100522.28
2019-05-14T19:50:48.882Z,100521.00
2019-05-14T19:53:16.490Z,100517.59
2019-05-14T19:55:44.383Z,100521.16
2019-05-14T19:58:12.218Z,100528.58
2019-05-14T20:00:43.277Z,100530.09
2019-05-14T20:03:11.142Z,100527.12
2019-05-14T20:05:39.523Z,100531.55
2019-05-14T20:08:08.757Z,100525.93
2019-05-14T20:10:38.759Z,100518.84
2019-05-14T20:13:06.762Z,100530.03
2019-05-14T20:15:34.712Z,100532.95
2019-05-14T20:18:02.592Z,100532.58
2019-05-14T20:20:30.628Z,100531.73
2019-05-14T20:22:59.001Z,100533.10
2019-05-14T20:25:28.057Z,100527.56
2019-05-14T20:27:55.988Z,100530.25
2019-05-14T20:30:23.890Z,100528.42
2019-05-14T20:32:52.180Z,100525.52
2019-05-14T20:35:30.759Z,100523.06
2019-05-14T20:37:49.720Z,100523.55
2019-05-14T20:40:17.646Z,100524.72
2019-05-14T20:42:45.641Z,100517.48
2019-05-14T20:45:13.629Z,100511.02
2019-05-14T20:47:42.495Z,100511.02
2019-05-14T20:50:10.426Z,100507.91
2019-05-14T20:52:38.542Z,100511.24
2019-05-14T20:55:09.216Z,100520.48
2019-05-14T21:00:04.972Z,100503.66
2019-05-14T21:02:32.920Z,100476.11
2019-05-14T21:05:04.364Z,100504.52
2019-05-14T21:07:30.453Z,100505.87
2019-05-14T21:09:58.229Z,100509.84
2019-05-14T21:12:28.700Z,100509.84
2019-05-14T21:14:55.879Z,100503.14
2019-05-14T21:17:23.676Z,100499.08
2019-05-14T21:19:52.610Z,100501.22
2019-05-14T21:22:20.603Z,100509.42
2019-05-14T21:24:51.036Z,100506.27
2019-05-14T21:27:18.742Z,100505.28
2019-05-14T21:29:48.765Z,100500.87
2019-05-14T21:32:21.518Z,100503.37
2019-05-14T21:34:49.335Z,100504.25
2019-05-14T21:37:18.824Z,100504.13
2019-05-14T21:39:48.896Z,100500.76
2019-05-14T21:42:28.522Z,100496.54
2019-05-14T21:44:58.415Z,100492.53
2019-05-14T21:47:26.082Z,100490.83
2019-05-14T21:49:53.840Z,100488.92
2019-05-14T21:52:21.639Z,100489.81
2019-05-14T21:54:49.425Z,100490.03
2019-05-14T21:57:19.000Z,100487.55
2019-05-14T21:59:48.019Z,100488.58
2019-05-14T22:02:24.438Z,100491.00
2019-05-14T22:04:49.119Z,100487.33
2019-05-14T22:07:30.093Z,100489.21
2019-05-14T22:09:58.355Z,100490.69
2019-05-14T22:12:31.244Z,100490.38
2019-05-14T22:14:59.062Z,100465.34
2019-05-14T22:17:28.526Z,100487.62
2019-05-14T22:19:58.298Z,100487.59
2019-05-14T22:22:27.813Z,100488.86
2019-05-14T22:24:56.138Z,100481.72
2019-05-14T22:27:23.963Z,100484.73
2019-05-14T22:29:51.779Z,100488.02
2019-05-14T22:32:19.693Z,100490.88
2019-05-14T22:34:49.075Z,100484.79
2019-05-14T22:37:19.908Z,100482.25
2019-05-14T22:39:48.040Z,100481.41
2019-05-14T22:42:16.006Z,100479.99
2019-05-14T22:44:43.822Z,100490.58
2019-05-14T22:47:14.685Z,100488.83
2019-05-14T22:49:42.479Z,100486.65
2019-05-14T22:52:10.452Z,100487.02
2019-05-14T22:54:38.766Z,100484.92
2019-05-14T22:57:06.620Z,100483.03
2019-05-14T22:59:34.351Z,100481.14
2019-05-14T23:02:02.485Z,100487.41
2019-05-14T23:04:30.238Z,100484.00
2019-05-14T23:06:58.699Z,100483.39
2019-05-14T23:09:26.796Z,100492.45
2019-05-14T23:11:54.747Z,100488.10
2019-05-14T23:14:22.498Z,100485.44
2019-05-14T23:16:50.326Z,100488.63
2019-05-14T23:19:18.751Z,100489.70
2019-05-14T23:21:48.455Z,100486.85
2019-05-14T23:24:18.762Z,100488.88
2019-05-14T23:26:48.996Z,100492.18
2019-05-14T23:29:15.833Z,100489.79
2019-05-14T23:31:43.889Z,100489.53
2019-05-14T23:34:11.668Z,100488.89
2019-05-14T23:36:39.442Z,100484.76
2019-05-14T23:39:08.813Z,100483.78
2019-05-14T23:41:38.340Z,100483.61
2019-05-14T23:44:08.354Z,100483.02
2019-05-14T23:46:36.164Z,100481.74
2019-05-14T23:49:03.942Z,100478.72
2019-05-14T23:51:31.918Z,100481.41
2019-05-14T23:53:59.711Z,100482.67
2019-05-14T23:56:28.873Z,100483.38
2019-05-14T23:59:01.678Z,100473.65
